Time;durP1;ratioP1;P1;durP2;ratioP2;P2;SDS_P1;SDS_P2;PMS_P1;PMS_P2;Temp;Humidity;BMP_temperature;BMP_pressure;BME280_temperature;BME280_humidity;BME280_pressure;Samples;Min_cycle;Max_cycle;Signal;HPM_P1;HPM_P2
2022/04/04 00:02:03;;;;;;;5.13;4.83;;;;;;;2.07;68.16;95698.69;4361016;32;20184;-59
2022/04/04 00:04:29;;;;;;;5.13;4.73;;;;;;;2.21;68.42;95699.22;4354004;32;20239;-60
2022/04/04 00:06:55;;;;;;;5.00;4.70;;;;;;;2.18;67.82;95695.25;4369229;32;20213;-66
2022/04/04 00:09:20;;;;;;;4.90;4.50;;;;;;;2.25;68.85;95698.53;4361122;32;20292;-60
2022/04/04 00:11:45;;;;;;;6.20;4.70;;;;;;;2.20;69.53;95692.41;4359558;32;20204;-60
2022/04/04 00:14:11;;;;;;;5.50;5.10;;;;;;;2.11;68.44;95693.78;4349409;32;20246;-60
2022/04/04 00:16:36;;;;;;;5.23;4.77;;;;;;;2.16;68.92;95691.28;4347785;32;20177;-60
2022/04/04 00:19:02;;;;;;;5.00;4.70;;;;;;;1.99;69.10;95693.81;4353801;32;20203;-60
2022/04/04 00:21:28;;;;;;;5.90;5.30;;;;;;;2.02;68.72;95688.91;4352504;32;20189;-60
2022/04/04 00:23:54;;;;;;;5.07;4.67;;;;;;;1.86;69.98;95687.00;4361582;32;20299;-60
2022/04/04 00:26:19;;;;;;;5.43;5.03;;;;;;;2.04;70.04;95681.63;4363372;32;20223;-60
2022/04/04 00:28:44;;;;;;;5.50;5.10;;;;;;;2.08;69.73;95674.09;4359254;32;20267;-60
2022/04/04 00:31:09;;;;;;;4.70;4.40;;;;;;;2.11;69.07;95673.63;4346914;32;20197;-59
2022/04/04 00:33:35;;;;;;;4.57;4.27;;;;;;;2.27;69.06;95667.72;4347638;32;20315;-60
2022/04/04 00:36:02;;;;;;;5.13;4.73;;;;;;;2.14;69.81;95672.37;4347966;32;20282;-60
2022/04/04 00:38:27;;;;;;;4.90;4.50;;;;;;;1.79;71.18;95670.63;4365302;32;20189;-61
2022/04/04 00:40:52;;;;;;;5.10;4.80;;;;;;;1.93;71.19;95664.13;4362866;32;20300;-60
2022/04/04 00:43:18;;;;;;;5.10;4.73;;;;;;;2.11;70.91;95662.38;4360194;32;20231;-60
2022/04/04 00:45:44;;;;;;;4.90;4.60;;;;;;;2.03;70.77;95658.31;4361038;32;20251;-60
2022/04/04 00:48:10;;;;;;;5.70;5.30;;;;;;;2.25;69.74;95655.87;4350274;32;20212;-59
2022/04/04 00:50:35;;;;;;;5.53;5.13;;;;;;;1.82;71.17;95662.34;4359137;32;20353;-60
2022/04/04 00:53:01;;;;;;;4.57;4.27;;;;;;;1.83;71.34;95650.84;4353013;32;20255;-59
2022/04/04 00:55:27;;;;;;;5.10;4.70;;;;;;;1.89;70.84;95659.59;4360612;32;20189;-60
2022/04/04 00:57:55;;;;;;;5.13;4.63;;;;;;;2.18;70.10;95657.81;4336616;32;20189;-59
2022/04/04 01:00:20;;;;;;;5.17;4.80;;;;;;;1.97;70.86;95654.81;4352767;32;20181;-59
2022/04/04 01:02:46;;;;;;;4.70;4.30;;;;;;;1.88;70.70;95650.94;4364397;32;20291;-59
2022/04/04 01:05:12;;;;;;;5.37;4.97;;;;;;;1.86;71.74;95645.16;4360451;32;20299;-59
2022/04/04 01:07:39;;;;;;;5.00;4.70;;;;;;;1.90;71.40;95646.28;4360432;32;20204;-59
2022/04/04 01:10:06;;;;;;;5.80;5.20;;;;;;;1.82;72.02;95638.81;4358763;32;20285;-59
2022/04/04 01:12:32;;;;;;;5.00;4.70;;;;;;;1.63;72.73;95639.97;4350089;32;20317;-59
2022/04/04 01:14:57;;;;;;;5.37;4.97;;;;;;;1.71;72.87;95644.84;4350092;32;20273;-59
2022/04/04 01:17:25;;;;;;;5.57;5.17;;;;;;;1.68;73.40;95629.59;4368852;32;20228;-59
2022/04/04 01:19:50;;;;;;;5.47;5.07;;;;;;;1.67;73.13;95626.19;4357258;32;20185;-59
2022/04/04 01:22:16;;;;;;;5.33;4.93;;;;;;;2.02;71.77;95633.19;4364668;32;20290;-59
2022/04/04 01:24:41;;;;;;;5.00;4.60;;;;;;;2.01;71.66;95637.62;4336718;32;20220;-59
2022/04/04 01:27:09;;;;;;;5.87;5.37;;;;;;;2.06;72.54;95623.84;4367671;32;20314;-59
2022/04/04 01:29:35;;;;;;;5.82;5.28;;;;;;;1.78;72.77;95626.41;4350374;32;20192;-59
2022/04/04 01:32:04;;;;;;;6.47;5.83;;;;;;;1.69;73.52;95625.97;4365137;32;20172;-60
2022/04/04 01:34:30;;;;;;;6.10;5.50;;;;;;;1.50;73.73;95634.97;4364328;32;20289;-59
2022/04/04 01:36:56;;;;;;;5.90;5.40;;;;;;;1.44;74.83;95635.91;4362352;32;20338;-59
2022/04/04 01:39:21;;;;;;;6.00;5.03;;;;;;;1.42;75.42;95638.72;4347258;32;20185;-60
2022/04/04 01:41:47;;;;;;;6.17;5.67;;;;;;;1.43;75.57;95626.47;4365377;32;20184;-60
2022/04/04 01:44:12;;;;;;;5.03;4.53;;;;;;;1.61;74.05;95628.94;4374348;32;20193;-59
2022/04/04 01:46:38;;;;;;;5.63;5.23;;;;;;;1.58;73.92;95619.75;4363109;32;20208;-60
2022/04/04 01:49:06;;;;;;;5.03;4.73;;;;;;;1.50;73.12;95621.88;4357287;32;20199;-60
2022/04/04 01:51:33;;;;;;;5.90;5.30;;;;;;;1.57;73.44;95627.81;4364863;32;20235;-60
2022/04/04 01:53:58;;;;;;;5.47;5.07;;;;;;;1.53;73.39;95624.06;4371415;32;20204;-60
2022/04/04 01:56:24;;;;;;;5.10;4.70;;;;;;;1.58;72.30;95619.75;4363969;32;20185;-60
2022/04/04 01:58:50;;;;;;;5.07;4.67;;;;;;;1.47;72.49;95614.50;4358695;32;20219;-60
2022/04/04 02:01:18;;;;;;;7.80;5.10;;;;;;;1.53;72.51;95616.22;4354831;32;20239;-59
2022/04/04 02:03:46;;;;;;;5.20;4.80;;;;;;;1.46;72.76;95607.69;4358050;32;20307;-60
2022/04/04 02:06:13;;;;;;;5.03;4.63;;;;;;;1.51;72.30;95610.41;4356928;32;20317;-59
2022/04/04 02:08:40;;;;;;;4.25;3.95;;;;;;;1.54;71.81;95602.91;4358951;32;20311;-60
2022/04/04 02:11:05;;;;;;;4.93;4.33;;;;;;;1.60;71.60;95611.66;4358883;32;20248;-60
2022/04/04 02:13:31;;;;;;;5.30;5.00;;;;;;;1.61;72.01;95603.59;4344250;32;20278;-59
2022/04/04 02:16:00;;;;;;;5.43;4.93;;;;;;;1.90;70.47;95604.44;4359956;32;20255;-61
2022/04/04 02:18:26;;;;;;;5.18;4.57;;;;;;;1.53;70.85;95608.38;4361622;32;20188;-63
2022/04/04 02:20:51;;;;;;;4.27;3.87;;;;;;;1.31;71.41;95605.53;4362537;32;20287;-59
2022/04/04 02:23:18;;;;;;;5.13;4.77;;;;;;;1.53;70.50;95600.53;4352201;32;20186;-59
2022/04/04 02:25:52;;;;;;;4.80;4.40;;;;;;;1.46;70.60;95602.47;4361791;32;20197;-59
2022/04/04 02:28:18;;;;;;;4.97;4.60;;;;;;;1.40;71.21;95598.16;4347966;32;20201;-59
2022/04/04 02:30:44;;;;;;;5.15;4.40;;;;;;;1.49;70.74;95605.41;4359323;32;20208;-60
2022/04/04 02:33:12;;;;;;;5.03;4.53;;;;;;;1.54;70.86;95594.28;4358754;32;20232;-60
2022/04/04 02:35:38;;;;;;;4.80;4.50;;;;;;;1.79;70.76;95597.41;4365164;32;20192;-60
2022/04/04 02:38:03;;;;;;;5.27;4.77;;;;;;;1.91;70.55;95592.16;4369841;32;20211;-59
2022/04/04 02:40:29;;;;;;;5.77;5.20;;;;;;;1.95;70.37;95593.28;4361482;32;20206;-60
2022/04/04 02:42:55;;;;;;;5.28;4.87;;;;;;;1.80;71.45;95599.00;4362737;32;20185;-59
2022/04/04 02:45:21;;;;;;;5.07;4.68;;;;;;;1.90;71.22;95601.03;4362999;32;20197;-60
2022/04/04 02:47:46;;;;;;;5.63;5.13;;;;;;;1.67;72.35;95600.03;4362109;32;20261;-59
2022/04/04 02:50:12;;;;;;;5.20;4.80;;;;;;;1.55;73.05;95591.44;4360596;32;20236;-60
2022/04/04 02:52:38;;;;;;;5.57;5.07;;;;;;;1.42;73.45;95596.13;4352947;32;20200;-60
2022/04/04 02:57:49;;;;;;;5.97;5.47;;;;;;;1.55;73.26;95591.44;4365331;32;20203;-60
2022/04/04 03:00:19;;;;;;;4.63;4.23;;;;;;;1.66;72.18;95577.53;4360941;32;20193;-59
2022/04/04 03:02:46;;;;;;;5.70;5.20;;;;;;;1.69;71.72;95581.50;4347080;32;20185;-60
2022/04/04 03:05:12;;;;;;;5.22;4.82;;;;;;;1.61;72.82;95582.69;4363983;32;20213;-59
2022/04/04 03:07:37;;;;;;;5.37;4.83;;;;;;;1.63;72.63;95585.06;4367648;32;20185;-59
2022/04/04 03:10:03;;;;;;;5.37;4.87;;;;;;;1.69;72.05;95577.06;4362595;32;20185;-59
2022/04/04 03:12:29;;;;;;;5.85;5.35;;;;;;;1.60;72.87;95570.63;4366423;32;20261;-59
2022/04/04 03:14:54;;;;;;;5.63;5.23;;;;;;;1.66;72.51;95576.78;4365357;32;20189;-59
2022/04/04 03:17:20;;;;;;;5.37;4.97;;;;;;;1.49;72.80;95579.28;4361770;32;20227;-60
2022/04/04 03:19:45;;;;;;;5.60;5.20;;;;;;;1.35;73.54;95576.12;4341032;32;20200;-60
2022/04/04 03:22:10;;;;;;;5.07;4.77;;;;;;;1.64;72.71;95579.63;4362118;32;20209;-60
2022/04/04 03:24:36;;;;;;;5.47;5.07;;;;;;;1.47;73.62;95572.69;4368772;32;20208;-60
2022/04/04 03:27:01;;;;;;;4.67;4.37;;;;;;;1.63;72.36;95572.78;4361679;32;20224;-60
2022/04/04 03:29:26;;;;;;;5.83;5.23;;;;;;;1.45;72.92;95566.91;4349712;32;20205;-60
2022/04/04 03:31:53;;;;;;;5.50;5.07;;;;;;;1.44;73.59;95567.94;4358384;32;20197;-59
2022/04/04 03:34:18;;;;;;;5.50;5.00;;;;;;;1.22;74.56;95568.53;4344672;32;20212;-60
2022/04/04 03:36:44;;;;;;;5.80;5.30;;;;;;;1.32;74.01;95570.56;4361499;32;20192;-60
2022/04/04 03:39:12;;;;;;;5.30;5.00;;;;;;;1.37;73.76;95568.06;4358540;32;20199;-60
2022/04/04 03:41:38;;;;;;;5.53;5.07;;;;;;;1.37;74.04;95568.84;4360984;32;20189;-60
2022/04/04 03:44:06;;;;;;;6.00;5.50;;;;;;;1.21;74.44;95566.94;4359874;32;20246;-60
2022/04/04 03:46:32;;;;;;;6.75;5.53;;;;;;;1.05;75.65;95570.22;4347353;32;20193;-59
2022/04/04 03:48:58;;;;;;;5.63;5.13;;;;;;;1.14;74.96;95566.25;4340527;32;20247;-59
2022/04/04 03:51:24;;;;;;;5.35;4.85;;;;;;;1.16;75.17;95564.22;4367810;32;20299;-60
2022/04/04 03:53:49;;;;;;;6.10;5.57;;;;;;;1.09;74.93;95571.34;4364033;32;20192;-60
2022/04/04 03:56:15;;;;;;;5.40;4.90;;;;;;;0.83;76.23;95571.81;4361462;32;20271;-60
2022/04/04 03:58:40;;;;;;;5.53;5.03;;;;;;;0.74;76.79;95563.53;4365888;32;20189;-60
2022/04/04 04:01:05;;;;;;;5.03;4.63;;;;;;;0.65;77.03;95570.88;4360265;32;20197;-60
2022/04/04 04:03:31;;;;;;;5.30;4.90;;;;;;;0.96;75.75;95571.59;4365312;32;20203;-59
2022/04/04 04:06:11;;;;;;;4.83;4.53;;;;;;;1.05;75.03;95570.22;4358414;32;20189;-59
2022/04/04 04:08:38;;;;;;;4.80;4.40;;;;;;;1.07;74.90;95557.72;4353207;32;20189;-60
2022/04/04 04:11:06;;;;;;;6.10;4.85;;;;;;;1.27;73.83;95562.59;4360726;32;20189;-60
2022/04/04 04:13:32;;;;;;;4.85;4.43;;;;;;;0.98;74.59;95569.56;4354085;32;20221;-59
2022/04/04 04:15:58;;;;;;;5.13;4.83;;;;;;;1.23;73.14;95558.88;4338332;32;20343;-63
2022/04/04 04:18:24;;;;;;;6.65;4.85;;;;;;;1.17;72.78;95572.84;4362552;32;20208;-60
2022/04/04 04:20:50;;;;;;;5.10;4.70;;;;;;;0.97;73.12;95571.38;4360199;32;20189;-59
2022/04/04 04:23:16;;;;;;;5.05;4.55;;;;;;;0.88;73.49;95564.09;4359646;32;20255;-60
2022/04/04 04:25:42;;;;;;;5.30;4.85;;;;;;;0.86;73.31;95564.31;4346310;32;20235;-60
2022/04/04 04:28:09;;;;;;;5.30;4.83;;;;;;;0.90;73.90;95567.28;4364440;32;20197;-59
2022/04/04 04:30:35;;;;;;;9.27;5.10;;;;;;;1.13;72.94;95562.06;4361846;32;20196;-60
2022/04/04 04:33:02;;;;;;;4.90;4.45;;;;;;;0.97;73.23;95566.16;4350539;32;20272;-60
2022/04/04 04:35:27;;;;;;;4.68;4.28;;;;;;;1.07;72.76;95562.16;4350730;32;20231;-65
2022/04/04 04:37:52;;;;;;;5.03;4.63;;;;;;;1.40;71.40;95557.16;4351255;32;20244;-59
2022/04/04 04:40:19;;;;;;;4.50;4.20;;;;;;;1.37;70.78;95553.19;4374645;32;20207;-59
2022/04/04 04:42:45;;;;;;;6.57;4.97;;;;;;;1.21;71.11;95561.72;4361339;32;20196;-60
2022/04/04 04:45:11;;;;;;;5.45;4.22;;;;;;;1.24;70.69;95556.03;4360813;32;20238;-60
2022/04/04 04:47:37;;;;;;;8.93;4.65;;;;;;;1.24;70.64;95560.47;4374809;32;20184;-60
2022/04/04 04:50:05;;;;;;;5.67;4.80;;;;;;;1.14;71.42;95562.84;4360113;32;20248;-60
2022/04/04 04:52:31;;;;;;;4.97;4.47;;;;;;;0.86;72.25;95568.75;4360849;32;20196;-60
2022/04/04 04:54:56;;;;;;;5.07;4.73;;;;;;;1.04;71.84;95566.00;4356308;32;20182;-59
2022/04/04 04:57:22;;;;;;;5.73;4.30;;;;;;;0.87;73.01;95568.50;4358452;32;20208;-60
2022/04/04 04:59:48;;;;;;;5.07;4.67;;;;;;;0.88;73.55;95572.72;4366899;32;20373;-61
2022/04/04 05:02:13;;;;;;;7.85;5.20;;;;;;;0.67;74.10;95578.47;4360151;32;20189;-60
2022/04/04 05:04:39;;;;;;;5.43;4.80;;;;;;;0.48;75.27;95577.75;4345626;32;20207;-60
2022/04/04 05:07:06;;;;;;;5.33;4.93;;;;;;;0.70;74.54;95575.44;4347808;32;20226;-60
2022/04/04 05:09:31;;;;;;;5.80;5.03;;;;;;;0.47;75.21;95572.78;4350268;32;20193;-60
2022/04/04 05:11:56;;;;;;;5.53;5.03;;;;;;;0.63;75.33;95565.06;4358864;32;20181;-60
2022/04/04 05:14:21;;;;;;;6.00;5.50;;;;;;;0.87;74.40;95567.72;4355782;32;20200;-60
2022/04/04 05:16:48;;;;;;;5.43;4.93;;;;;;;0.74;74.86;95560.13;4353800;32;20248;-60
2022/04/04 05:19:19;;;;;;;5.70;5.07;;;;;;;0.74;75.44;95566.13;4355228;32;20192;-59
2022/04/04 05:21:44;;;;;;;5.90;5.10;;;;;;;0.72;74.69;95567.38;4363509;32;20215;-59
2022/04/04 05:24:10;;;;;;;5.70;4.90;;;;;;;0.72;73.69;95565.56;4357503;32;20238;-59
2022/04/04 05:26:36;;;;;;;5.67;5.17;;;;;;;0.52;73.68;95570.28;4362804;32;20204;-60
2022/04/04 05:29:02;;;;;;;5.03;4.53;;;;;;;0.54;73.98;95569.06;4366267;32;20183;-59
2022/04/04 05:31:27;;;;;;;4.90;4.50;;;;;;;0.45;73.32;95569.59;4363555;32;20215;-60
2022/04/04 05:33:54;;;;;;;7.33;4.47;;;;;;;0.45;72.43;95574.81;4361769;32;20201;-60
2022/04/04 05:36:20;;;;;;;6.25;4.78;;;;;;;0.54;71.74;95571.66;4348917;32;20201;-60
2022/04/04 05:38:47;;;;;;;5.13;4.73;;;;;;;0.69;71.13;95571.22;4349250;32;20185;-60
2022/04/04 05:41:13;;;;;;;5.03;4.40;;;;;;;0.57;71.50;95579.03;4361671;32;20281;-60
2022/04/04 05:43:38;;;;;;;5.50;5.00;;;;;;;0.76;70.61;95577.16;4357904;32;20201;-60
2022/04/04 05:46:03;;;;;;;5.70;4.70;;;;;;;0.42;71.54;95581.25;4362460;32;20180;-60
2022/04/04 05:48:30;;;;;;;5.83;4.80;;;;;;;0.60;70.96;95581.22;4364606;32;20203;-60
2022/04/04 05:50:57;;;;;;;4.65;4.28;;;;;;;0.57;71.09;95579.03;4348611;32;20240;-60
2022/04/04 05:53:22;;;;;;;6.40;5.35;;;;;;;0.37;72.18;95578.53;4359036;32;20186;-60
2022/04/04 05:55:48;;;;;;;5.83;4.93;;;;;;;0.34;72.86;95582.38;4360057;32;20260;-61
2022/04/04 05:58:13;;;;;;;7.67;5.77;;;;;;;0.54;72.53;95592.53;4364281;32;20192;-60
2022/04/04 06:00:38;;;;;;;5.30;4.90;;;;;;;0.43;72.65;95587.28;4363041;32;20197;-60
2022/04/04 06:03:04;;;;;;;6.30;5.60;;;;;;;0.60;72.68;95583.81;4361524;32;20219;-60
2022/04/04 06:05:30;;;;;;;7.57;5.40;;;;;;;0.79;72.84;95581.13;4367446;32;20189;-60
2022/04/04 06:07:56;;;;;;;5.95;5.45;;;;;;;0.69;73.23;95577.25;4348999;32;20185;-60
2022/04/04 06:10:21;;;;;;;8.73;6.10;;;;;;;0.86;72.95;95585.19;4356465;32;20182;-60
2022/04/04 06:12:47;;;;;;;6.53;5.87;;;;;;;0.92;72.54;95586.91;4358532;32;20189;-60
2022/04/04 06:15:12;;;;;;;6.70;5.70;;;;;;;0.93;72.50;95580.69;4361163;32;20232;-60
2022/04/04 06:17:38;;;;;;;6.20;5.60;;;;;;;0.97;72.70;95581.81;4361473;32;20189;-59
2022/04/04 06:20:05;;;;;;;10.23;5.25;;;;;;;0.81;73.29;95579.87;4362770;32;20180;-60
2022/04/04 06:22:35;;;;;;;6.10;5.32;;;;;;;0.94;73.27;95579.66;4361073;32;20192;-60
2022/04/04 06:25:00;;;;;;;7.68;4.95;;;;;;;0.83;73.69;95587.50;4366128;32;20189;-60
2022/04/04 06:27:26;;;;;;;6.97;5.20;;;;;;;1.08;72.46;95582.81;4362171;32;20268;-61
2022/04/04 06:29:51;;;;;;;5.63;5.10;;;;;;;1.02;72.48;95591.59;4361627;32;20188;-60
2022/04/04 06:32:16;;;;;;;5.77;4.93;;;;;;;1.12;70.99;95591.00;4340873;32;20205;-60
2022/04/04 06:34:42;;;;;;;8.23;5.93;;;;;;;1.04;71.10;95590.31;4357171;32;20229;-60
2022/04/04 06:37:10;;;;;;;4.87;4.53;;;;;;;1.16;70.51;95590.34;4351501;32;20189;-60
2022/04/04 06:39:35;;;;;;;6.22;5.05;;;;;;;1.12;69.98;95591.00;4361048;32;20256;-60
2022/04/04 06:42:01;;;;;;;5.17;4.77;;;;;;;1.37;69.37;95594.19;4362014;32;20193;-59
2022/04/04 06:44:27;;;;;;;6.50;4.33;;;;;;;1.38;68.39;95587.94;4362630;32;20236;-60
2022/04/04 06:46:52;;;;;;;6.93;4.20;;;;;;;1.55;65.32;95586.22;4362111;32;20189;-60
2022/04/04 06:49:17;;;;;;;5.20;4.67;;;;;;;1.44;65.84;95596.69;4341523;32;26763;-60
2022/04/04 06:51:43;;;;;;;10.33;5.07;;;;;;;1.57;65.18;95581.56;4348430;32;20256;-60
2022/04/04 06:54:08;;;;;;;13.93;5.13;;;;;;;2.15;79.53;95585.00;4352444;32;20237;-60
2022/04/04 06:56:37;;;;;;;7.63;4.87;;;;;;;3.23;83.53;95581.31;4361596;32;20199;-60
2022/04/04 06:59:03;;;;;;;8.27;4.07;;;;;;;3.80;77.46;95576.56;4365294;32;20232;-60
2022/04/04 07:01:29;;;;;;;6.63;4.40;;;;;;;4.10;67.80;95576.91;4363252;32;20289;-59
2022/04/04 07:03:54;;;;;;;4.90;2.97;;;;;;;4.42;67.06;95576.19;4360485;32;20276;-60
2022/04/04 07:06:20;;;;;;;5.80;3.73;;;;;;;4.16;59.95;95577.75;4360423;32;20281;-60
2022/04/04 07:08:46;;;;;;;9.90;3.87;;;;;;;4.21;61.59;95571.75;4363925;32;20215;-60
2022/04/04 07:11:13;;;;;;;4.43;3.63;;;;;;;4.38;63.31;95573.25;4364197;32;20286;-60
2022/04/04 07:13:39;;;;;;;3.93;3.73;;;;;;;4.59;63.18;95579.50;4359790;32;20227;-60
2022/04/04 07:16:07;;;;;;;3.77;3.47;;;;;;;4.77;57.62;95566.00;4347620;32;20336;-59
2022/04/04 07:18:32;;;;;;;3.17;2.97;;;;;;;4.74;61.90;95573.59;4359945;32;20193;-60
2022/04/04 07:20:58;;;;;;;4.97;3.03;;;;;;;4.81;58.76;95561.81;4356598;32;20273;-60
2022/04/04 07:23:23;;;;;;;3.70;3.37;;;;;;;4.98;55.71;95566.97;4355413;32;20201;-59
2022/04/04 07:25:49;;;;;;;3.37;2.70;;;;;;;5.04;57.61;95562.50;4361071;32;20295;-60
2022/04/04 07:28:14;;;;;;;3.67;3.20;;;;;;;5.12;58.24;95562.06;4349997;32;20193;-60
2022/04/04 07:30:40;;;;;;;4.00;3.00;;;;;;;5.39;58.74;95560.13;4350376;32;20234;-60
2022/04/04 07:33:08;;;;;;;4.63;2.87;;;;;;;5.42;55.77;95558.81;4353797;32;20220;-60
2022/04/04 07:35:34;;;;;;;3.40;3.10;;;;;;;5.12;54.15;95557.59;4353757;32;20185;-60
2022/04/04 07:37:59;;;;;;;4.93;3.00;;;;;;;5.31;57.75;95557.19;4361536;32;20300;-59
2022/04/04 07:40:24;;;;;;;2.57;2.43;;;;;;;5.77;55.90;95560.84;4371089;32;20226;-60
2022/04/04 07:42:50;;;;;;;9.77;2.80;;;;;;;5.81;52.20;95551.41;4361042;32;20200;-59
2022/04/04 07:45:16;;;;;;;2.87;2.63;;;;;;;5.78;49.17;95557.19;4360950;32;20189;-59
2022/04/04 07:47:44;;;;;;;3.77;3.27;;;;;;;5.99;51.76;95556.25;4359897;32;20189;-60
2022/04/04 07:50:11;;;;;;;3.00;2.80;;;;;;;6.06;51.11;95556.75;4356763;32;20281;-60
2022/04/04 07:52:37;;;;;;;3.03;2.73;;;;;;;6.37;49.43;95557.66;4347652;32;20311;-59
2022/04/04 07:55:04;;;;;;;3.63;3.33;;;;;;;5.98;46.24;95562.56;4363332;32;20312;-60
2022/04/04 07:57:29;;;;;;;3.27;3.07;;;;;;;6.26;47.76;95557.87;4351319;32;20285;-59
2022/04/04 07:59:54;;;;;;;3.07;2.30;;;;;;;6.50;45.96;95557.13;4357811;32;20300;-59
2022/04/04 08:02:20;;;;;;;3.13;2.83;;;;;;;6.55;47.76;95561.62;4349277;32;20205;-60
2022/04/04 08:04:46;;;;;;;2.83;2.63;;;;;;;6.12;46.62;95553.09;4361309;32;20189;-60
2022/04/04 08:07:12;;;;;;;3.17;2.97;;;;;;;6.44;48.31;95552.13;4361266;32;20193;-60
2022/04/04 08:09:38;;;;;;;5.00;2.33;;;;;;;6.25;45.47;95558.91;4359597;32;20198;-59
2022/04/04 08:12:03;;;;;;;3.70;2.50;;;;;;;6.03;43.96;95556.50;4359974;32;20300;-60
2022/04/04 08:14:29;;;;;;;2.70;2.50;;;;;;;5.58;43.32;95555.25;4362413;32;20200;-59
2022/04/04 08:16:55;;;;;;;2.83;2.63;;;;;;;4.70;45.68;95554.12;4358385;32;20205;-59
2022/04/04 08:19:20;;;;;;;3.07;2.70;;;;;;;4.62;47.90;95555.34;4362543;32;20189;-60
2022/04/04 08:21:46;;;;;;;3.00;2.80;;;;;;;4.58;47.75;95546.38;4349227;32;20181;-59
2022/04/04 08:24:13;;;;;;;2.67;2.30;;;;;;;4.51;46.89;95545.03;4361142;32;20192;-60
2022/04/04 08:26:39;;;;;;;6.70;2.67;;;;;;;4.19;47.12;95547.59;4360885;32;20218;-60
2022/04/04 08:29:05;;;;;;;5.53;2.70;;;;;;;4.00;47.41;95552.38;4360277;32;20356;-59
2022/04/04 08:31:31;;;;;;;2.30;2.20;;;;;;;3.91;47.52;95546.78;4359552;32;20319;-59
2022/04/04 08:33:57;;;;;;;3.00;2.70;;;;;;;4.07;47.78;95545.13;4347616;32;20290;-60
2022/04/04 08:36:22;;;;;;;3.00;2.70;;;;;;;4.03;48.36;95542.19;4375027;32;20219;-56
2022/04/04 08:38:47;;;;;;;4.17;2.47;;;;;;;3.78;49.04;95545.31;4361108;32;20197;-59
2022/04/04 08:41:13;;;;;;;2.53;2.33;;;;;;;3.65;49.49;95537.81;4347340;32;20331;-59
2022/04/04 08:43:42;;;;;;;2.90;2.70;;;;;;;3.54;49.63;95525.59;4360207;32;20231;-58
2022/04/04 08:46:07;;;;;;;4.40;2.90;;;;;;;3.70;50.99;95529.22;4354630;32;20188;-58
2022/04/04 08:48:38;;;;;;;2.63;2.43;;;;;;;3.94;50.25;95530.56;4360500;32;20366;-59
2022/04/04 08:51:07;;;;;;;3.63;2.93;;;;;;;4.07;50.16;95529.38;4363071;32;20197;-59
2022/04/04 08:53:34;;;;;;;3.00;2.80;;;;;;;4.21;48.51;95521.88;4363047;32;20293;-58
2022/04/04 08:56:00;;;;;;;2.80;2.50;;;;;;;4.05;48.60;95532.22;4367956;32;20273;-59
2022/04/04 08:58:25;;;;;;;2.50;2.40;;;;;;;4.26;49.26;95519.31;4365396;32;20384;-58
2022/04/04 09:00:50;;;;;;;2.83;2.60;;;;;;;4.21;50.47;95516.63;4345489;32;20206;-60
2022/04/04 09:03:21;;;;;;;2.90;2.70;;;;;;;4.45;48.70;95512.66;4365629;32;20204;-59
2022/04/04 09:05:57;;;;;;;3.00;2.80;;;;;;;4.53;49.38;95509.59;4361126;32;20192;-59
2022/04/04 09:08:24;;;;;;;3.07;2.77;;;;;;;4.60;47.44;95511.97;4363142;32;20348;-59
2022/04/04 09:10:53;;;;;;;2.97;2.63;;;;;;;4.70;48.53;95515.50;4354011;32;20341;-59
2022/04/04 09:13:19;;;;;;;3.20;2.53;;;;;;;4.91;48.64;95508.56;4349797;32;20273;-59
2022/04/04 09:16:08;;;;;;;2.70;2.50;;;;;;;5.11;48.85;95503.44;4353386;32;20291;-58
2022/04/04 09:18:36;;;;;;;3.00;2.80;;;;;;;5.10;47.62;95498.41;4354177;32;20231;-59
2022/04/04 09:21:22;;;;;;;3.50;3.20;;;;;;;5.06;48.22;95502.59;4363349;32;20277;-60
2022/04/04 09:23:50;;;;;;;2.90;2.70;;;;;;;5.24;47.90;95494.28;4353709;32;20281;-59
2022/04/04 09:26:40;;;;;;;5.10;3.30;;;;;;;5.21;47.92;95491.38;4363114;32;20365;-58
2022/04/04 09:29:16;;;;;;;3.30;3.10;;;;;;;5.07;47.52;95475.25;4348167;32;20274;-59
2022/04/04 09:32:05;;;;;;;3.07;2.70;;;;;;;5.00;48.54;95464.16;4359522;32;20281;-60
2022/04/04 09:35:04;;;;;;;3.13;2.93;;;;;;;5.10;50.38;95482.66;4337318;32;20281;-59
2022/04/04 09:37:33;;;;;;;3.03;2.83;;;;;;;5.90;49.06;95473.53;4351218;32;20278;-59
2022/04/04 09:40:05;;;;;;;4.03;3.10;;;;;;;5.99;50.01;95466.72;4363441;32;20308;-59
2022/04/04 09:42:32;;;;;;;6.47;3.50;;;;;;;6.47;51.44;95473.34;4360563;32;20277;-59
2022/04/04 09:45:10;;;;;;;6.93;3.00;;;;;;;6.37;46.03;95467.28;4348952;32;20336;-58
2022/04/04 09:47:50;;;;;;;3.33;3.13;;;;;;;6.05;47.98;95465.66;4362334;32;20281;-59
2022/04/04 09:50:38;;;;;;;3.57;3.27;;;;;;;6.42;48.05;95465.44;4361991;32;20285;-59
2022/04/04 09:53:09;;;;;;;4.03;3.63;;;;;;;6.67;45.82;95459.37;4356155;32;20351;-57
2022/04/04 09:55:43;;;;;;;3.83;3.63;;;;;;;6.17;46.72;95463.59;4362084;32;20287;-59
2022/04/04 09:58:13;;;;;;;4.43;4.03;;;;;;;5.93;47.27;95445.91;4356598;32;20288;-61
2022/04/04 10:00:39;;;;;;;3.57;3.37;;;;;;;5.73;47.99;95451.88;4361019;32;20361;-61
2022/04/04 10:03:12;;;;;;;4.00;3.63;;;;;;;5.57;47.96;95445.78;4346101;32;20300;-61
2022/04/04 10:05:40;;;;;;;4.20;3.90;;;;;;;5.36;49.03;95444.91;4351401;32;20293;-61
2022/04/04 10:08:05;;;;;;;3.93;3.73;;;;;;;5.36;49.49;95434.41;4361590;32;20297;-62
2022/04/04 10:10:31;;;;;;;4.17;3.90;;;;;;;5.30;49.46;95439.88;4362547;32;20299;-62
2022/04/04 10:12:58;;;;;;;4.37;4.07;;;;;;;5.43;50.28;95439.41;4364686;32;20199;-61
2022/04/04 10:15:25;;;;;;;4.40;4.03;;;;;;;5.49;49.25;95433.09;4348709;32;20227;-61
2022/04/04 10:17:53;;;;;;;4.63;4.23;;;;;;;5.18;50.05;95432.22;4346163;32;20373;-59
2022/04/04 10:20:19;;;;;;;4.60;4.27;;;;;;;4.85;51.32;95425.47;4335741;32;20283;-59
2022/04/04 10:22:47;;;;;;;5.00;4.70;;;;;;;5.05;50.99;95419.50;4360810;32;20285;-59
2022/04/04 10:25:14;;;;;;;4.40;4.10;;;;;;;5.02;52.25;95412.13;4364544;32;20320;-59
2022/04/04 10:27:43;;;;;;;6.73;4.67;;;;;;;5.27;51.22;95407.00;4361193;32;20359;-59
2022/04/04 10:30:10;;;;;;;4.40;4.10;;;;;;;5.25;51.84;95414.34;4362429;32;20281;-59
2022/04/04 10:32:48;;;;;;;5.20;4.70;;;;;;;5.34;50.77;95399.66;4348575;32;20270;-60
2022/04/04 10:35:13;;;;;;;10.17;6.33;;;;;;;5.53;51.49;95398.13;4352641;32;20333;-59
2022/04/04 10:37:44;;;;;;;6.90;5.43;;;;;;;5.58;52.81;95401.84;4344921;32;20304;-60
2022/04/04 10:40:29;;;;;;;5.23;4.73;;;;;;;5.98;53.20;95388.78;4360326;32;20263;-59
2022/04/04 10:43:14;;;;;;;4.80;4.50;;;;;;;5.79;49.67;95372.69;4361799;32;20295;-59
2022/04/04 10:45:57;;;;;;;13.50;9.87;;;;;;;5.62;50.03;95384.47;4345919;32;20285;-59
2022/04/04 10:48:37;;;;;;;5.37;5.00;;;;;;;5.75;55.93;95373.44;4355873;32;20273;-59
2022/04/04 10:51:30;;;;;;;5.30;4.90;;;;;;;5.81;51.44;95369.78;4367068;32;20355;-59
2022/04/04 10:54:00;;;;;;;5.40;4.90;;;;;;;5.40;51.98;95377.56;4348096;32;20265;-60
2022/04/04 10:56:31;;;;;;;5.50;5.10;;;;;;;5.68;51.65;95370.28;4363744;32;20357;-59
2022/04/04 10:59:15;;;;;;;5.03;4.63;;;;;;;5.62;51.81;95352.88;4361207;32;20319;-59
2022/04/04 11:01:41;;;;;;;6.07;5.47;;;;;;;5.60;52.39;95357.66;4361745;32;20324;-60
2022/04/04 11:04:23;;;;;;;6.40;5.00;;;;;;;5.71;52.60;95338.97;4345399;32;20269;-59
2022/04/04 11:09:46;;;;;;;5.40;4.90;;;;;;;5.41;51.39;95350.22;4355563;32;20283;-59
2022/04/04 11:12:14;;;;;;;5.83;5.20;;;;;;;5.52;51.75;95340.53;4358199;32;20278;-59
2022/04/04 11:14:46;;;;;;;5.93;5.40;;;;;;;5.51;54.55;95334.47;4360778;32;20284;-59
2022/04/04 11:17:13;;;;;;;6.10;5.60;;;;;;;5.46;54.02;95350.22;4361937;32;20286;-58
2022/04/04 11:19:53;;;;;;;6.33;5.50;;;;;;;5.40;53.38;95343.37;4348325;32;20331;-60
2022/04/04 11:22:24;;;;;;;69.80;26.33;;;;;;;5.37;52.48;95338.66;4335963;32;20273;-42
2022/04/04 11:24:55;;;;;;;19.23;10.30;;;;;;;9.09;86.04;95310.19;4348051;32;20274;-42
2022/04/04 11:27:23;;;;;;;18.40;9.73;;;;;;;12.89;59.15;95301.91;4352407;32;21003;-42
2022/04/04 11:29:49;;;;;;;12.10;7.80;;;;;;;14.44;47.24;95288.75;4357820;32;20289;-43
2022/04/04 11:32:16;;;;;;;8.20;5.73;;;;;;;16.01;41.16;95300.16;4352711;32;20259;-43
2022/04/04 11:34:45;;;;;;;5.47;4.97;;;;;;;16.59;37.30;95293.81;4357413;32;20220;-42
2022/04/04 11:37:17;;;;;;;5.33;4.93;;;;;;;17.14;34.55;95287.19;4359159;32;20193;-43
2022/04/04 11:39:45;;;;;;;6.47;5.07;;;;;;;16.47;31.83;95299.91;4357117;32;20206;-44
2022/04/04 11:42:10;;;;;;;4.90;4.60;;;;;;;17.60;33.29;95287.81;4347896;32;20189;-43
2022/04/04 11:44:45;;;;;;;5.60;5.10;;;;;;;16.80;32.05;95283.03;4339421;32;20208;-59
2022/04/04 11:47:11;;;;;;;6.80;6.40;;;;;;;15.73;31.35;95289.25;4364604;32;20189;-61
2022/04/04 11:49:38;;;;;;;5.47;5.13;;;;;;;11.91;35.56;95283.41;4363930;32;20184;-60